createdAt,value
2018-03-01T00:00:50.752Z,47.47
2018-03-01T00:03:19.659Z,51.33
2018-03-01T00:05:49.042Z,49.95
2018-03-01T00:08:18.475Z,50.03
2018-03-01T00:10:49.160Z,51.28
2018-03-01T00:13:20.767Z,48.70
2018-03-01T00:15:51.354Z,48.88
2018-03-01T00:18:22.673Z,46.80
2018-03-01T00:20:53.116Z,45.73
2018-03-01T00:23:23.952Z,43.00
2018-03-01T00:25:54.284Z,40.05
2018-03-01T00:28:25.777Z,40.44
2018-03-01T00:30:56.023Z,41.13
2018-03-01T00:33:25.661Z,40.68
2018-03-01T00:35:58.333Z,44.57
2018-03-01T00:38:29.076Z,43.60
2018-03-01T00:41:00.703Z,43.98
2018-03-01T00:43:29.932Z,43.22
2018-03-01T00:46:02.072Z,43.90
2018-03-01T00:48:32.245Z,42.42
2018-03-01T00:51:02.587Z,41.68
2018-03-01T00:53:33.115Z,43.00
2018-03-01T00:56:03.558Z,42.05
2018-03-01T00:58:36.629Z,36.02
2018-03-01T01:01:08.452Z,34.36
2018-03-01T01:03:40.247Z,34.40
2018-03-01T01:06:09.579Z,33.40
2018-03-01T01:08:41.090Z,33.38
2018-03-01T01:11:12.191Z,32.52
2018-03-01T01:13:41.876Z,33.17
2018-03-01T01:16:14.245Z,33.95
2018-03-01T01:18:44.815Z,33.72
2018-03-01T01:21:14.475Z,33.33
2018-03-01T01:23:44.754Z,33.83
2018-03-01T01:26:16.024Z,33.02
2018-03-01T01:28:45.698Z,33.20
2018-03-01T01:31:16.081Z,33.77
2018-03-01T01:33:47.127Z,31.90
2018-03-01T01:36:19.485Z,33.38
2018-03-01T01:38:50.356Z,33.53
2018-03-01T01:41:20.979Z,32.82
2018-03-01T01:43:52.494Z,35.33
2018-03-01T01:46:22.389Z,32.63
2018-03-01T01:48:52.744Z,31.52
2018-03-01T01:51:22.831Z,31.05
2018-03-01T01:53:54.780Z,28.65
2018-03-01T01:56:28.109Z,31.20
2018-03-01T01:58:57.476Z,28.80
2018-03-01T02:01:29.237Z,29.52
2018-03-01T02:03:58.656Z,29.27
2018-03-01T02:06:30.363Z,29.40
2018-03-01T02:09:01.267Z,29.87
2018-03-01T02:11:30.687Z,31.43
2018-03-01T02:14:02.425Z,28.64
2018-03-01T02:16:32.920Z,26.36
2018-03-01T02:19:03.667Z,25.48
2018-03-01T02:21:33.332Z,23.17
2018-03-01T02:24:04.371Z,22.75
2018-03-01T02:26:37.296Z,25.30
2018-03-01T02:29:07.232Z,26.33
2018-03-01T02:31:37.943Z,27.18
2018-03-01T02:34:07.968Z,27.40
2018-03-01T02:36:39.472Z,26.72
2018-03-01T02:39:10.487Z,26.33
2018-03-01T02:41:39.711Z,23.95
2018-03-01T02:44:11.443Z,22.96
2018-03-01T02:46:42.645Z,23.90
2018-03-01T02:49:13.578Z,24.00
2018-03-01T02:51:43.117Z,26.12
2018-03-01T02:54:17.414Z,24.70
2018-03-01T02:56:48.850Z,25.80
2018-03-01T02:59:20.311Z,26.58
2018-03-01T03:01:51.159Z,25.58
2018-03-01T03:04:23.388Z,23.55
2018-03-01T03:06:53.908Z,21.40
2018-03-01T03:09:23.879Z,20.92
2018-03-01T03:12:01.051Z,22.36
2018-03-01T03:14:30.622Z,22.52
2018-03-01T03:17:01.673Z,24.63
2018-03-01T03:19:30.759Z,26.92
2018-03-01T03:22:00.856Z,24.70
2018-03-01T03:24:30.395Z,28.27
2018-03-01T03:27:01.469Z,30.12
2018-03-01T03:29:33.251Z,31.26
2018-03-01T03:32:04.259Z,32.72
2018-03-01T03:34:34.348Z,28.65
2018-03-01T03:37:03.711Z,26.33
2018-03-01T03:39:33.837Z,25.12
2018-03-01T03:42:05.292Z,24.48
2018-03-01T03:44:36.670Z,37.88
2018-03-01T03:47:09.796Z,51.49
2018-03-01T03:49:39.296Z,46.15
2018-03-01T03:52:08.716Z,32.58
2018-03-01T03:54:38.669Z,31.55
2018-03-01T03:57:09.740Z,27.08
2018-03-01T03:59:40.738Z,28.92
2018-03-01T04:02:10.583Z,28.12
2018-03-01T04:04:41.291Z,29.58
2018-03-01T04:07:12.822Z,29.50
2018-03-01T04:09:43.380Z,36.85
2018-03-01T04:12:14.314Z,36.70
2018-03-01T04:14:45.515Z,30.65
2018-03-01T04:17:15.373Z,28.15
2018-03-01T04:19:46.990Z,32.16
2018-03-01T04:22:20.841Z,34.24
2018-03-01T04:24:50.848Z,29.50
2018-03-01T04:27:21.373Z,27.76
2018-03-01T04:29:51.597Z,27.15
2018-03-01T04:32:24.358Z,28.03
2018-03-01T04:34:53.750Z,27.94
2018-03-01T04:37:25.765Z,27.10
2018-03-01T04:39:54.911Z,24.55
2018-03-01T04:42:26.612Z,24.72
2018-03-01T04:44:57.075Z,26.94
2018-03-01T04:47:28.121Z,28.58
2018-03-01T04:49:59.105Z,33.58
2018-03-01T04:52:29.514Z,32.35
2018-03-01T04:55:00.433Z,31.45
2018-03-01T04:57:31.192Z,29.73
2018-03-01T05:00:02.260Z,32.97
2018-03-01T05:02:36.706Z,30.89
2018-03-01T05:05:06.440Z,30.20
2018-03-01T05:07:36.110Z,31.13
2018-03-01T05:10:07.660Z,30.28
2018-03-01T05:12:38.064Z,30.56
2018-03-01T05:15:09.104Z,28.84
2018-03-01T05:17:39.627Z,28.35
2018-03-01T05:20:10.051Z,31.67
2018-03-01T05:22:40.895Z,31.73
2018-03-01T05:25:11.663Z,30.22
2018-03-01T05:27:43.660Z,33.38
2018-03-01T05:30:14.538Z,36.58
2018-03-01T05:32:45.147Z,48.20
2018-03-01T05:35:15.727Z,48.82
2018-03-01T05:37:47.222Z,38.94
2018-03-01T05:40:18.531Z,31.18
2018-03-01T05:42:49.169Z,24.05
2018-03-01T05:45:20.874Z,25.90
2018-03-01T05:47:52.511Z,25.27
2018-03-01T05:50:21.950Z,25.08
2018-03-01T05:52:53.829Z,24.65
2018-03-01T05:55:26.610Z,25.48
2018-03-01T05:57:55.791Z,27.70
2018-03-01T06:00:25.624Z,28.67
2018-03-01T06:02:55.364Z,32.05
2018-03-01T06:05:29.003Z,30.69
2018-03-01T06:07:58.755Z,32.08
2018-03-01T06:10:29.073Z,34.46
2018-03-01T06:13:00.408Z,34.42
2018-03-01T06:15:30.501Z,38.35
2018-03-01T06:18:01.226Z,34.20
2018-03-01T06:20:34.004Z,34.44
2018-03-01T06:23:05.502Z,30.05
2018-03-01T06:25:37.491Z,30.37
2018-03-01T06:28:09.085Z,28.98
2018-03-01T06:30:38.667Z,27.12
2018-03-01T06:33:08.379Z,27.80
2018-03-01T06:35:40.764Z,26.58
2018-03-01T06:38:09.889Z,27.48
2018-03-01T06:40:41.150Z,27.25
2018-03-01T06:43:11.798Z,28.54
2018-03-01T06:45:43.945Z,33.02
2018-03-01T06:48:13.623Z,25.90
2018-03-01T06:50:45.410Z,26.20
2018-03-01T06:53:17.837Z,26.58
2018-03-01T06:55:47.048Z,22.20
2018-03-01T06:58:18.959Z,15.60
2018-03-01T07:00:50.226Z,24.33
2018-03-01T07:03:19.603Z,20.57
2018-03-01T07:05:50.367Z,27.80
2018-03-01T07:08:21.725Z,18.54
2018-03-01T07:10:52.305Z,24.30
2018-03-01T07:13:22.723Z,21.87
2018-03-01T07:15:54.439Z,20.14
2018-03-01T07:18:25.276Z,21.30
2018-03-01T07:20:55.724Z,8.05
2018-03-01T07:23:25.255Z,18.15
2018-03-01T07:25:56.898Z,17.52
2018-03-01T07:28:27.366Z,19.60
2018-03-01T07:30:58.026Z,22.05
2018-03-01T07:33:28.871Z,20.35
2018-03-01T07:36:00.046Z,20.02
2018-03-01T07:38:30.404Z,18.66
2018-03-01T07:41:01.092Z,18.75
2018-03-01T07:43:32.323Z,13.28
2018-03-01T07:46:03.505Z,18.30
2018-03-01T07:48:35.037Z,16.50
2018-03-01T07:51:04.634Z,34.80
2018-03-01T07:53:33.963Z,25.17
2018-03-01T07:56:04.759Z,19.48
2018-03-01T07:58:36.858Z,17.94
2018-03-01T08:01:07.400Z,17.60
2018-03-01T08:03:39.920Z,15.33
2018-03-01T08:06:09.559Z,21.70
2018-03-01T08:08:40.705Z,16.20
2018-03-01T08:11:11.243Z,15.65
2018-03-01T08:13:40.972Z,13.90
2018-03-01T08:16:11.588Z,15.75
2018-03-01T08:18:41.399Z,17.62
2018-03-01T08:21:12.410Z,19.65
2018-03-01T08:23:43.352Z,18.55
2018-03-01T08:26:14.433Z,13.73
2018-03-01T08:28:44.356Z,21.73
2018-03-01T08:31:13.703Z,19.33
2018-03-01T08:33:43.293Z,19.85
2018-03-01T08:36:12.544Z,16.08
2018-03-01T08:38:41.811Z,26.27
2018-03-01T08:41:10.948Z,21.48
2018-03-01T08:43:39.996Z,18.47
2018-03-01T08:46:09.079Z,22.93
2018-03-01T08:48:38.342Z,18.00
2018-03-01T08:51:07.111Z,23.77
2018-03-01T08:53:36.196Z,15.73
2018-03-01T08:56:05.233Z,24.67
2018-03-01T08:58:34.158Z,25.43
2018-03-01T09:01:03.713Z,25.10
2018-03-01T09:03:32.827Z,20.53
2018-03-01T09:06:01.830Z,15.07
2018-03-01T09:08:30.911Z,19.97
2018-03-01T09:11:00.322Z,23.60
2018-03-01T09:13:29.330Z,18.10
2018-03-01T09:15:58.610Z,15.30
2018-03-01T09:18:27.571Z,19.20
2018-03-01T09:20:57.044Z,20.90
2018-03-01T09:23:26.313Z,21.07
2018-03-01T09:25:55.202Z,12.83
2018-03-01T09:28:23.982Z,14.03
2018-03-01T09:30:53.599Z,13.40
2018-03-01T09:33:23.339Z,18.47
2018-03-01T09:35:52.679Z,16.30
2018-03-01T09:38:21.820Z,14.20
2018-03-01T09:40:50.931Z,20.07
2018-03-01T09:43:19.819Z,17.07
2018-03-01T09:45:48.822Z,14.20
2018-03-01T09:48:18.028Z,13.73
2018-03-01T09:50:46.834Z,15.37
2018-03-01T09:53:15.749Z,16.40
2018-03-01T09:55:45.214Z,18.90
2018-03-01T09:58:14.400Z,16.87
2018-03-01T10:00:43.402Z,15.52
2018-03-01T10:03:12.393Z,17.33
2018-03-01T10:05:41.248Z,31.70
2018-03-01T10:08:10.216Z,25.70
2018-03-01T10:10:39.155Z,15.57
2018-03-01T10:13:07.947Z,15.23
2018-03-01T10:15:36.743Z,16.67
2018-03-01T10:18:05.789Z,14.40
2018-03-01T10:20:34.892Z,14.17
2018-03-01T10:23:03.872Z,16.20
2018-03-01T10:25:32.781Z,13.40
2018-03-01T10:28:01.974Z,12.77
2018-03-01T10:30:30.808Z,15.90
2018-03-01T10:32:59.849Z,9.33
2018-03-01T10:35:28.904Z,14.47
2018-03-01T10:37:57.692Z,13.67
2018-03-01T10:40:26.732Z,15.73
2018-03-01T10:42:55.760Z,15.43
2018-03-01T10:45:24.960Z,15.45
2018-03-01T10:47:54.134Z,10.70
2018-03-01T10:50:22.971Z,14.53
2018-03-01T10:52:51.861Z,18.43
2018-03-01T10:55:20.716Z,16.57
2018-03-01T10:57:50.079Z,15.17
2018-03-01T11:00:24.465Z,14.33
2018-03-01T11:02:53.635Z,15.00
2018-03-01T11:05:22.606Z,15.77
2018-03-01T11:07:51.743Z,13.80
2018-03-01T11:10:20.764Z,17.40
2018-03-01T11:12:49.791Z,15.90
2018-03-01T11:15:18.795Z,16.47
2018-03-01T11:17:47.610Z,18.10
2018-03-01T11:20:16.557Z,15.20
2018-03-01T11:22:45.820Z,17.08
2018-03-01T11:25:14.611Z,15.33
2018-03-01T11:27:43.736Z,15.53
2018-03-01T11:30:12.845Z,12.33
2018-03-01T11:32:41.939Z,14.23
2018-03-01T11:35:10.691Z,14.60
2018-03-01T11:37:39.865Z,10.25
2018-03-01T11:40:09.132Z,13.43
2018-03-01T11:42:38.255Z,12.55
2018-03-01T11:45:07.477Z,12.98
2018-03-01T11:47:36.607Z,11.70
2018-03-01T11:50:05.716Z,15.23
2018-03-01T11:52:34.872Z,14.90
2018-03-01T11:55:04.034Z,13.82
2018-03-01T11:57:33.655Z,14.82
2018-03-01T12:00:04.185Z,16.14
2018-03-01T12:02:34.385Z,12.32
2018-03-01T12:05:06.259Z,14.66
2018-03-01T12:07:36.068Z,11.10
2018-03-01T12:10:06.825Z,11.27
2018-03-01T12:12:37.432Z,12.07
2018-03-01T12:15:08.172Z,12.20
2018-03-01T12:17:39.638Z,11.32
2018-03-01T12:20:10.196Z,14.23
2018-03-01T12:22:41.532Z,13.26
2018-03-01T12:25:12.304Z,13.62
2018-03-01T12:27:43.133Z,13.20
2018-03-01T12:30:13.988Z,11.90
2018-03-01T12:32:44.608Z,11.48
2018-03-01T12:35:15.380Z,11.07
2018-03-01T12:37:46.195Z,16.55
2018-03-01T12:40:17.158Z,11.55
2018-03-01T12:42:48.613Z,11.52
2018-03-01T12:45:20.005Z,15.68
2018-03-01T12:47:50.862Z,11.50
2018-03-01T12:50:21.686Z,15.07
2018-03-01T12:52:52.426Z,13.75
2018-03-01T12:55:23.804Z,11.84
2018-03-01T12:57:54.521Z,16.50
2018-03-01T13:00:24.992Z,12.57
2018-03-01T13:02:56.225Z,10.94
2018-03-01T13:05:27.727Z,14.08
2018-03-01T13:07:58.709Z,24.92
2018-03-01T13:10:41.444Z,19.12
2018-03-01T13:13:10.503Z,14.68
2018-03-01T13:15:39.831Z,11.48
2018-03-01T13:18:09.051Z,17.20
2018-03-01T13:20:38.023Z,12.23
2018-03-01T13:23:20.534Z,11.40
2018-03-01T13:25:49.525Z,13.10
2018-03-01T13:28:18.505Z,13.53
2018-03-01T13:30:48.546Z,12.27
2018-03-01T13:36:19.545Z,13.43
2018-03-01T13:38:48.674Z,13.47
2018-03-01T13:41:17.743Z,12.77
2018-03-01T13:43:46.643Z,13.90
2018-03-01T13:46:15.631Z,12.33
2018-03-01T13:48:44.599Z,12.83
2018-03-01T13:51:13.764Z,13.07
2018-03-01T13:53:42.586Z,13.70
2018-03-01T13:56:11.525Z,13.20
2018-03-01T13:58:40.601Z,13.60
2018-03-01T14:01:09.551Z,10.60
2018-03-01T14:03:38.590Z,11.80
2018-03-01T14:06:08.439Z,13.40
2018-03-01T14:08:37.449Z,14.20
2018-03-01T14:11:06.328Z,12.97
2018-03-01T14:13:42.434Z,21.55
2018-03-01T14:16:11.504Z,12.85
2018-03-01T14:21:45.087Z,11.23
2018-03-01T14:24:16.627Z,11.82
2018-03-01T14:27:01.302Z,13.87
2018-03-01T14:29:31.003Z,11.50
2018-03-01T14:31:59.730Z,11.47
2018-03-01T14:34:28.751Z,11.77
2018-03-01T14:36:57.984Z,11.63
2018-03-01T14:39:26.772Z,10.77
2018-03-01T14:41:55.934Z,13.10
2018-03-01T14:44:25.226Z,13.60
2018-03-01T14:46:54.075Z,12.90
2018-03-01T14:49:22.908Z,12.53
2018-03-01T14:51:52.129Z,13.48
2018-03-01T14:54:21.060Z,11.70
2018-03-01T14:56:50.043Z,12.73
2018-03-01T14:59:19.123Z,13.40
2018-03-01T15:01:47.920Z,13.00
2018-03-01T15:04:18.963Z,11.75
2018-03-01T15:06:47.824Z,11.70
2018-03-01T15:09:16.707Z,12.17
2018-03-01T15:11:45.772Z,12.93
2018-03-01T15:14:14.784Z,11.97
2018-03-01T15:16:43.674Z,11.03
2018-03-01T15:19:13.256Z,15.57
2018-03-01T15:21:42.090Z,13.20
2018-03-01T15:24:10.879Z,12.53
2018-03-01T15:26:39.712Z,13.10
2018-03-01T15:29:09.433Z,11.30
2018-03-01T15:31:38.611Z,12.40
2018-03-01T15:34:07.524Z,13.27
2018-03-01T15:36:36.648Z,12.13
2018-03-01T15:39:05.052Z,15.33
2018-03-01T15:41:34.268Z,14.23
2018-03-01T15:44:04.124Z,13.50
2018-03-01T15:46:33.940Z,13.60
2018-03-01T15:49:03.347Z,17.20
2018-03-01T15:51:32.506Z,17.62
2018-03-01T15:54:01.453Z,17.05
2018-03-01T15:56:30.617Z,14.85
2018-03-01T15:58:59.764Z,14.60
2018-03-01T16:01:30.468Z,13.52
2018-03-01T16:04:00.183Z,14.80
2018-03-01T16:06:30.931Z,14.40
2018-03-01T16:09:00.762Z,14.75
2018-03-01T16:11:31.412Z,15.50
2018-03-01T16:14:02.141Z,21.77
2018-03-01T16:16:33.514Z,20.64
2018-03-01T16:19:04.331Z,15.73
2018-03-01T16:21:35.702Z,16.35
2018-03-01T16:24:06.326Z,15.80
2018-03-01T16:26:37.430Z,14.75
2018-03-01T16:29:08.300Z,19.42
2018-03-01T16:31:39.230Z,21.35
2018-03-01T16:34:15.395Z,19.14
2018-03-01T16:36:44.571Z,17.58
2018-03-01T16:39:13.837Z,17.50
2018-03-01T16:41:44.511Z,20.62
2018-03-01T16:44:14.997Z,23.10
2018-03-01T16:46:45.971Z,23.35
2018-03-01T16:49:17.392Z,22.54
2018-03-01T16:51:48.041Z,29.42
2018-03-01T16:54:18.790Z,26.98
2018-03-01T16:56:49.832Z,25.17
2018-03-01T16:59:21.839Z,26.50
2018-03-01T17:01:52.453Z,32.48
2018-03-01T17:04:23.340Z,39.03
2018-03-01T17:06:54.889Z,27.15
2018-03-01T17:09:24.472Z,19.45
2018-03-01T17:11:55.025Z,21.95
2018-03-01T17:14:26.643Z,21.70
2018-03-01T17:16:56.108Z,22.27
2018-03-01T17:19:26.910Z,22.60
2018-03-01T17:21:57.882Z,20.67
2018-03-01T17:24:28.886Z,19.27
2018-03-01T17:26:59.884Z,20.67
2018-03-01T17:29:30.791Z,28.50
2018-03-01T17:32:01.407Z,22.70
2018-03-01T17:34:31.861Z,24.83
2018-03-01T17:37:02.490Z,29.52
2018-03-01T17:39:33.963Z,30.10
2018-03-01T17:42:04.955Z,34.42
2018-03-01T17:44:35.896Z,39.22
2018-03-01T17:47:06.677Z,41.33
2018-03-01T17:49:37.683Z,41.17
2018-03-01T17:52:09.543Z,41.47
2018-03-01T17:54:39.253Z,38.90
2018-03-01T17:57:10.595Z,38.17
2018-03-01T17:59:41.512Z,52.75
2018-03-01T18:02:12.165Z,38.65
2018-03-01T18:04:42.876Z,44.20
2018-03-01T18:07:15.939Z,46.30
2018-03-01T18:09:45.505Z,40.05
2018-03-01T18:12:16.115Z,36.80
2018-03-01T18:14:46.832Z,33.33
2018-03-01T18:17:17.821Z,34.72
2018-03-01T18:19:48.719Z,30.55
2018-03-01T18:22:19.642Z,31.75
2018-03-01T18:24:50.595Z,30.77
2018-03-01T18:27:22.831Z,31.36
2018-03-01T18:29:53.354Z,34.92
2018-03-01T18:32:24.047Z,34.58
2018-03-01T18:34:55.065Z,32.75
2018-03-01T18:37:25.737Z,31.45
2018-03-01T18:39:56.541Z,32.13
2018-03-01T18:42:28.080Z,30.54
2018-03-01T18:45:00.429Z,28.40
2018-03-01T18:47:30.858Z,26.90
2018-03-01T18:50:02.111Z,25.55
2018-03-01T18:52:32.843Z,25.40
2018-03-01T18:55:03.411Z,25.70
2018-03-01T18:57:33.796Z,25.37
2018-03-01T19:00:04.734Z,24.98
2018-03-01T19:02:35.598Z,24.10
2018-03-01T19:05:06.167Z,22.85
2018-03-01T19:07:37.800Z,24.54
2018-03-01T19:10:08.224Z,22.83
2018-03-01T19:12:39.284Z,23.45
2018-03-01T19:15:10.151Z,24.45
2018-03-01T19:17:41.011Z,26.73
2018-03-01T19:20:10.940Z,26.83
2018-03-01T19:22:43.437Z,25.95
2018-03-01T19:25:14.065Z,26.75
2018-03-01T19:27:44.982Z,25.00
2018-03-01T19:37:17.061Z,22.45
2018-03-01T19:39:45.892Z,21.73
2018-03-01T19:42:14.720Z,23.57
2018-03-01T19:44:43.841Z,25.43
2018-03-01T19:47:12.741Z,23.73
2018-03-01T19:49:41.808Z,27.30
2018-03-01T19:52:10.783Z,30.63
2018-03-01T19:54:39.789Z,27.87
2018-03-01T19:57:08.597Z,26.60
2018-03-01T19:59:37.867Z,27.17
2018-03-01T20:02:06.802Z,27.30
2018-03-01T20:04:35.823Z,25.13
2018-03-01T20:07:04.563Z,26.90
2018-03-01T20:09:33.780Z,26.80
2018-03-01T20:12:02.785Z,24.03
2018-03-01T20:14:31.830Z,24.73
2018-03-01T20:17:01.106Z,23.33
2018-03-01T20:19:30.128Z,26.73
2018-03-01T20:21:59.015Z,25.77
2018-03-01T20:24:27.861Z,26.83
2018-03-01T20:26:56.791Z,27.50
2018-03-01T20:29:25.921Z,27.43
2018-03-01T20:31:54.767Z,24.33
2018-03-01T20:34:23.815Z,25.97
2018-03-01T20:36:52.825Z,25.77
2018-03-01T20:39:22.480Z,28.10
2018-03-01T20:41:51.585Z,33.75
2018-03-01T20:44:20.768Z,32.17
2018-03-01T20:46:49.700Z,29.57
2018-03-01T20:49:18.724Z,28.63
2018-03-01T20:51:47.935Z,30.93
2018-03-01T20:54:16.855Z,31.50
2018-03-01T20:56:45.705Z,29.80
2018-03-01T20:59:14.931Z,28.70
2018-03-01T21:01:43.821Z,28.27
2018-03-01T21:04:13.651Z,28.23
2018-03-01T21:06:42.885Z,28.43
2018-03-01T21:09:11.823Z,28.07
2018-03-01T21:11:41.536Z,27.10
2018-03-01T21:14:10.569Z,28.13
2018-03-01T21:16:39.769Z,27.33
2018-03-01T21:19:08.621Z,29.60
2018-03-01T21:21:37.890Z,37.47
2018-03-01T21:24:06.751Z,40.63
2018-03-01T21:26:35.433Z,39.90
2018-03-01T21:29:04.402Z,34.40
2018-03-01T21:31:33.506Z,36.60
2018-03-01T21:34:02.620Z,33.93
2018-03-01T21:36:31.731Z,32.70
2018-03-01T21:39:00.643Z,34.17
2018-03-01T21:41:29.683Z,32.30
2018-03-01T21:43:59.311Z,34.20
2018-03-01T21:46:28.613Z,33.40
2018-03-01T21:48:57.684Z,38.20
2018-03-01T21:51:27.280Z,33.50
2018-03-01T21:53:56.136Z,32.63
2018-03-01T21:56:24.643Z,31.50
2018-03-01T21:58:54.446Z,33.15
2018-03-01T22:01:23.593Z,32.47
2018-03-01T22:03:52.991Z,31.95
2018-03-01T22:06:22.231Z,31.30
2018-03-01T22:08:51.360Z,36.72
2018-03-01T22:11:20.480Z,37.63
2018-03-01T22:13:55.637Z,38.13
2018-03-01T22:16:24.767Z,44.93
2018-03-01T22:18:53.890Z,73.18
2018-03-01T22:21:23.199Z,105.60
2018-03-01T22:23:52.419Z,105.93
2018-03-01T22:26:21.498Z,86.70
2018-03-01T22:28:50.654Z,68.18
2018-03-01T22:31:19.978Z,62.27
2018-03-01T22:33:49.777Z,85.22
2018-03-01T22:36:21.570Z,79.12
2018-03-01T22:38:51.321Z,68.60
2018-03-01T22:41:22.776Z,57.18
2018-03-01T22:43:52.768Z,62.75
2018-03-01T22:46:23.153Z,54.87
2018-03-01T22:48:54.143Z,54.00
2018-03-01T22:51:25.296Z,52.62
2018-03-01T22:53:57.582Z,49.52
2018-03-01T22:56:28.022Z,49.22
2018-03-01T22:58:58.841Z,50.40
2018-03-01T23:01:30.736Z,49.98
2018-03-01T23:04:01.345Z,46.24
2018-03-01T23:06:33.026Z,47.25
2018-03-01T23:09:03.238Z,47.24
2018-03-01T23:11:33.560Z,43.53
2018-03-01T23:14:03.563Z,43.22
2018-03-01T23:16:32.764Z,44.72
2018-03-01T23:19:03.436Z,38.45
2018-03-01T23:21:34.111Z,41.92
2018-03-01T23:24:06.584Z,60.90
2018-03-01T23:26:38.093Z,43.04
2018-03-01T23:29:09.152Z,39.50
2018-03-01T23:31:40.284Z,40.00
2018-03-01T23:34:10.631Z,37.97
2018-03-01T23:36:41.712Z,32.30
2018-03-01T23:39:13.290Z,34.62
2018-03-01T23:41:44.503Z,35.36
2018-03-01T23:44:14.952Z,33.00
2018-03-01T23:46:46.493Z,34.98
2018-03-01T23:49:21.343Z,36.24
2018-03-01T23:51:53.586Z,34.14
2018-03-01T23:54:22.857Z,34.33
2018-03-01T23:56:51.868Z,33.80
2018-03-01T23:59:22.440Z,34.10
